NDF95M EDDH-LGTS
Flight info
| Callsign | NDF95M |
|---|---|
| Flight time | 2h 25m |
| Altitude | 37000 |
| Route | AMLUH3B AMLUH M852 DENIX DCT ZUCKA DCT ALOSO DCT ABERU T703 ARMUT DCT LULAR DCT DEXIT DCT BOSNA DCT AKIKA DCT ENFAR DCT PEP DCT TALAS N130 ALIKO ALIKO1P |
| Aircraft | A321/M-SDE3FGHIRWY/LB1 |
Departure
| Time | 2026-05-04 07:08 |
|---|---|
| Airport | Hamburg Helmut Schmidt Airport (EDDH) |
Arrival
| Time | 2026-05-04 09:34 |
|---|---|
| Airport | Thessaloniki Macedonia International Airport (LGTS) |
| Time | Latitude | Longitude | Altitude | Speed | Heading |
|---|---|---|---|---|---|
| 2026-05-04 06:50 | 53.63245 | 10.00350 | 49 ft | 0 kts | 86° |
| 2026-05-04 07:01 | 53.63218 | 10.00221 | 48 ft | 0 kts | 323° |
| 2026-05-04 07:04 | 53.63221 | 10.00214 | 48 ft | 2 kts | 309° |
| 2026-05-04 07:05 | 53.63241 | 10.00181 | 48 ft | 9 kts | 322° |
| 2026-05-04 07:05 | 53.63304 | 10.00161 | 48 ft | 9 kts | 353° |
| 2026-05-04 07:05 | 53.63364 | 10.00154 | 48 ft | 8 kts | 356° |
| 2026-05-04 07:05 | 53.63419 | 10.00151 | 48 ft | 7 kts | 359° |
| 2026-05-04 07:06 | 53.63511 | 10.00066 | 49 ft | 8 kts | 320° |
| 2026-05-04 07:06 | 53.63516 | 10.00060 | 50 ft | 0 kts | 320° |
| 2026-05-04 07:07 | 53.63524 | 10.00047 | 48 ft | 6 kts | 320° |
| 2026-05-04 07:08 | 53.61307 | 9.95340 | 923 ft | 160 kts | 230° |
| 2026-05-04 07:09 | 53.60598 | 9.93887 | 1481 ft | 161 kts | 230° |
| 2026-05-04 07:09 | 53.59884 | 9.92418 | 1978 ft | 166 kts | 230° |
| 2026-05-04 07:09 | 53.59109 | 9.90819 | 2227 ft | 187 kts | 230° |
| 2026-05-04 07:09 | 53.58238 | 9.89024 | 2432 ft | 209 kts | 230° |
| 2026-05-04 07:10 | 53.57256 | 9.87121 | 2840 ft | 220 kts | 219° |
| 2026-05-04 07:10 | 53.55858 | 9.86223 | 3517 ft | 219 kts | 176° |
| 2026-05-04 07:12 | 53.51371 | 10.01871 | 7830 ft | 273 kts | 91° |
| 2026-05-04 07:12 | 53.51098 | 10.05040 | 8566 ft | 277 kts | 108° |
| 2026-05-04 07:12 | 53.50303 | 10.08003 | 9330 ft | 280 kts | 117° |
| 2026-05-04 07:12 | 53.49409 | 10.10927 | 10084 ft | 283 kts | 117° |
| 2026-05-04 07:13 | 53.48486 | 10.13931 | 10519 ft | 299 kts | 117° |
| 2026-05-04 07:13 | 53.47495 | 10.17157 | 10692 ft | 322 kts | 117° |
| 2026-05-04 07:13 | 53.46437 | 10.20616 | 10880 ft | 343 kts | 117° |
| 2026-05-04 07:14 | 53.40264 | 10.33030 | 13356 ft | 361 kts | 154° |
| 2026-05-04 07:14 | 53.37909 | 10.34514 | 14007 ft | 364 kts | 165° |
| 2026-05-04 07:15 | 53.35450 | 10.35615 | 14642 ft | 367 kts | 165° |
| 2026-05-04 07:15 | 53.32973 | 10.36719 | 15260 ft | 370 kts | 165° |
| 2026-05-04 07:15 | 53.30471 | 10.37831 | 15861 ft | 374 kts | 165° |
| 2026-05-04 07:15 | 53.27949 | 10.38954 | 16436 ft | 377 kts | 165° |
| 2026-05-04 07:16 | 53.25406 | 10.40094 | 17003 ft | 380 kts | 165° |
| 2026-05-04 07:16 | 53.22843 | 10.41246 | 17550 ft | 383 kts | 165° |
| 2026-05-04 07:16 | 53.20256 | 10.42406 | 18091 ft | 386 kts | 165° |
| 2026-05-04 07:16 | 53.17649 | 10.43569 | 18596 ft | 389 kts | 165° |
| 2026-05-04 07:17 | 53.15024 | 10.44736 | 19098 ft | 392 kts | 165° |
| 2026-05-04 07:17 | 53.12374 | 10.45892 | 19587 ft | 395 kts | 167° |
| 2026-05-04 07:17 | 53.09681 | 10.46892 | 20071 ft | 398 kts | 169° |
| 2026-05-04 07:17 | 53.06953 | 10.47760 | 20546 ft | 401 kts | 170° |
| 2026-05-04 07:18 | 53.04239 | 10.48553 | 21002 ft | 403 kts | 171° |
| 2026-05-04 07:18 | 53.01459 | 10.49343 | 21460 ft | 406 kts | 171° |
| 2026-05-04 07:18 | 52.98663 | 10.50143 | 21913 ft | 409 kts | 170° |
| 2026-05-04 07:18 | 52.95851 | 10.50970 | 22354 ft | 412 kts | 170° |
| 2026-05-04 07:19 | 52.93026 | 10.51829 | 22779 ft | 415 kts | 170° |
| 2026-05-04 07:19 | 52.90180 | 10.52714 | 23202 ft | 417 kts | 169° |
| 2026-05-04 07:19 | 52.87321 | 10.53611 | 23615 ft | 420 kts | 169° |
| 2026-05-04 07:19 | 52.84440 | 10.54516 | 24021 ft | 422 kts | 169° |
| 2026-05-04 07:20 | 52.81544 | 10.55421 | 24423 ft | 425 kts | 170° |
| 2026-05-04 07:20 | 52.78630 | 10.56324 | 24813 ft | 427 kts | 170° |
| 2026-05-04 07:20 | 52.75703 | 10.57220 | 25184 ft | 429 kts | 170° |
| 2026-05-04 07:20 | 52.72758 | 10.58117 | 25560 ft | 432 kts | 170° |
| 2026-05-04 07:22 | 52.51712 | 10.64544 | 27867 ft | 447 kts | 169° |
| 2026-05-04 07:22 | 52.48648 | 10.65468 | 28169 ft | 449 kts | 169° |
| 2026-05-04 07:23 | 52.45569 | 10.66398 | 28468 ft | 451 kts | 169° |
| 2026-05-04 07:23 | 52.42476 | 10.67331 | 28761 ft | 453 kts | 169° |
| 2026-05-04 07:23 | 52.39369 | 10.68268 | 29046 ft | 455 kts | 169° |
| 2026-05-04 07:23 | 52.36251 | 10.69207 | 29337 ft | 456 kts | 169° |
| 2026-05-04 07:24 | 52.33133 | 10.70148 | 29707 ft | 455 kts | 169° |
| 2026-05-04 07:24 | 52.30026 | 10.71090 | 30075 ft | 454 kts | 169° |
| 2026-05-04 07:24 | 52.26921 | 10.72028 | 30422 ft | 454 kts | 169° |
| 2026-05-04 07:24 | 52.23818 | 10.72964 | 30766 ft | 453 kts | 169° |
| 2026-05-04 07:25 | 52.20718 | 10.73896 | 31121 ft | 452 kts | 169° |
| 2026-05-04 07:26 | 51.99176 | 10.80289 | 33544 ft | 447 kts | 170° |
| 2026-05-04 07:27 | 51.96118 | 10.81195 | 33865 ft | 446 kts | 170° |
| 2026-05-04 07:27 | 51.93110 | 10.82090 | 34178 ft | 446 kts | 170° |
| 2026-05-04 07:27 | 51.90063 | 10.82998 | 34488 ft | 445 kts | 170° |
| 2026-05-04 07:27 | 51.87019 | 10.83903 | 34791 ft | 444 kts | 170° |
| 2026-05-04 07:28 | 51.83979 | 10.84801 | 35033 ft | 445 kts | 170° |
| 2026-05-04 07:28 | 51.80944 | 10.85692 | 35092 ft | 442 kts | 170° |
| 2026-05-04 07:28 | 51.74913 | 10.87452 | 35087 ft | 440 kts | 170° |
| 2026-05-04 07:29 | 51.68907 | 10.89297 | 35097 ft | 439 kts | 165° |
| 2026-05-04 07:29 | 51.63289 | 10.93137 | 35092 ft | 440 kts | 152° |
| 2026-05-04 07:30 | 51.57883 | 10.97758 | 35097 ft | 440 kts | 153° |
| 2026-05-04 07:30 | 51.52460 | 11.02354 | 35095 ft | 441 kts | 153° |
| 2026-05-04 07:31 | 51.47031 | 11.06928 | 35097 ft | 441 kts | 153° |
| 2026-05-04 07:33 | 51.25330 | 11.25169 | 35089 ft | 441 kts | 153° |
| 2026-05-04 07:33 | 51.19893 | 11.29698 | 35080 ft | 441 kts | 153° |
| 2026-05-04 07:34 | 51.14446 | 11.34220 | 35073 ft | 442 kts | 153° |
| 2026-05-04 07:34 | 51.08998 | 11.38741 | 35072 ft | 442 kts | 153° |
| 2026-05-04 07:35 | 51.03545 | 11.43260 | 35080 ft | 442 kts | 153° |
| 2026-05-04 07:35 | 50.98089 | 11.47769 | 35082 ft | 442 kts | 153° |
| 2026-05-04 07:36 | 50.92627 | 11.52264 | 35089 ft | 442 kts | 153° |
| 2026-05-04 07:38 | 50.70797 | 11.70081 | 35089 ft | 442 kts | 156° |
| 2026-05-04 07:38 | 50.65094 | 11.73696 | 35080 ft | 442 kts | 159° |
| 2026-05-04 07:39 | 50.59376 | 11.77247 | 35090 ft | 442 kts | 159° |
| 2026-05-04 07:39 | 50.53656 | 11.80782 | 35090 ft | 442 kts | 159° |
| 2026-05-04 07:40 | 50.47937 | 11.84309 | 35090 ft | 442 kts | 159° |
| 2026-05-04 07:40 | 50.42217 | 11.87832 | 35088 ft | 442 kts | 159° |
| 2026-05-04 07:41 | 50.36494 | 11.91352 | 35093 ft | 442 kts | 159° |
| 2026-05-04 07:41 | 50.30773 | 11.94859 | 35083 ft | 442 kts | 159° |
| 2026-05-04 07:42 | 50.25049 | 11.98363 | 35083 ft | 442 kts | 159° |
| 2026-05-04 07:42 | 50.19323 | 12.01847 | 35093 ft | 442 kts | 159° |
| 2026-05-04 07:43 | 50.13596 | 12.05323 | 35086 ft | 442 kts | 159° |
| 2026-05-04 07:43 | 50.07873 | 12.08797 | 35093 ft | 442 kts | 159° |
| 2026-05-04 07:44 | 50.02177 | 12.12398 | 35079 ft | 442 kts | 157° |
| 2026-05-04 07:44 | 49.96537 | 12.16208 | 35079 ft | 442 kts | 157° |
| 2026-05-04 07:45 | 49.90899 | 12.20031 | 35071 ft | 442 kts | 157° |
| 2026-05-04 07:45 | 49.85245 | 12.23799 | 35069 ft | 442 kts | 157° |
| 2026-05-04 07:46 | 49.79576 | 12.27524 | 35064 ft | 442 kts | 158° |
| 2026-05-04 07:46 | 49.73914 | 12.31265 | 35068 ft | 443 kts | 154° |
| 2026-05-04 07:47 | 49.68822 | 12.36563 | 35062 ft | 443 kts | 142° |
| 2026-05-04 07:49 | 49.49488 | 12.60223 | 35064 ft | 444 kts | 142° |
| 2026-05-04 07:49 | 49.45460 | 12.65119 | 35062 ft | 444 kts | 142° |
| 2026-05-04 07:50 | 49.39828 | 12.71950 | 35062 ft | 444 kts | 142° |
| 2026-05-04 07:50 | 49.35165 | 12.78138 | 35065 ft | 444 kts | 134° |
| 2026-05-04 07:51 | 49.30897 | 12.84992 | 35063 ft | 444 kts | 134° |
| 2026-05-04 07:51 | 49.27316 | 12.90731 | 35062 ft | 445 kts | 134° |
| 2026-05-04 07:52 | 49.23033 | 12.97552 | 35061 ft | 445 kts | 135° |
| 2026-05-04 07:52 | 49.18745 | 13.04367 | 35064 ft | 445 kts | 135° |
| 2026-05-04 07:54 | 49.01582 | 13.31470 | 35066 ft | 445 kts | 135° |
| 2026-05-04 07:55 | 48.97278 | 13.38225 | 35073 ft | 445 kts | 135° |
| 2026-05-04 07:55 | 48.92966 | 13.44964 | 35067 ft | 444 kts | 135° |
| 2026-05-04 07:56 | 48.88654 | 13.51696 | 35072 ft | 444 kts | 135° |
| 2026-05-04 07:56 | 48.84344 | 13.58413 | 35068 ft | 444 kts | 135° |
| 2026-05-04 07:57 | 48.80026 | 13.65108 | 35073 ft | 444 kts | 135° |
| 2026-05-04 07:57 | 48.75572 | 13.71565 | 35067 ft | 442 kts | 144° |
| 2026-05-04 07:58 | 48.70486 | 13.76802 | 35071 ft | 442 kts | 147° |
| 2026-05-04 07:58 | 48.67925 | 13.79402 | 35294 ft | 444 kts | 147° |
| 2026-05-04 07:58 | 48.65361 | 13.82002 | 35562 ft | 444 kts | 147° |
| 2026-05-04 07:59 | 48.62792 | 13.84602 | 35846 ft | 444 kts | 147° |
| 2026-05-04 07:59 | 48.60221 | 13.87196 | 36122 ft | 444 kts | 147° |
| 2026-05-04 07:59 | 48.57656 | 13.89780 | 36391 ft | 443 kts | 147° |
| 2026-05-04 07:59 | 48.55088 | 13.92364 | 36642 ft | 443 kts | 147° |
| 2026-05-04 08:00 | 48.52521 | 13.94948 | 36875 ft | 443 kts | 147° |
| 2026-05-04 08:00 | 48.49952 | 13.97531 | 37043 ft | 444 kts | 147° |
| 2026-05-04 08:02 | 48.29378 | 14.18122 | 37066 ft | 444 kts | 147° |
| 2026-05-04 08:02 | 48.24259 | 14.23196 | 37068 ft | 444 kts | 147° |
| 2026-05-04 08:03 | 48.19108 | 14.28308 | 37069 ft | 444 kts | 147° |
| 2026-05-04 08:03 | 48.13948 | 14.33407 | 37071 ft | 444 kts | 147° |
| 2026-05-04 08:04 | 48.08789 | 14.38507 | 37073 ft | 444 kts | 147° |
| 2026-05-04 08:04 | 48.03630 | 14.43599 | 37075 ft | 444 kts | 147° |
| 2026-05-04 08:05 | 47.98465 | 14.48681 | 37076 ft | 444 kts | 147° |
| 2026-05-04 08:05 | 47.93296 | 14.53740 | 37077 ft | 444 kts | 147° |
| 2026-05-04 08:06 | 47.88122 | 14.58789 | 37074 ft | 445 kts | 148° |
| 2026-05-04 08:06 | 47.82963 | 14.63816 | 37068 ft | 445 kts | 148° |
| 2026-05-04 08:08 | 47.62228 | 14.83903 | 37062 ft | 445 kts | 148° |
| 2026-05-04 08:11 | 47.38842 | 15.06326 | 37063 ft | 445 kts | 148° |
| 2026-05-04 08:11 | 47.31042 | 15.13761 | 37062 ft | 445 kts | 148° |
| 2026-05-04 08:12 | 47.25844 | 15.18711 | 37063 ft | 445 kts | 148° |
| 2026-05-04 08:12 | 47.20670 | 15.23611 | 37063 ft | 445 kts | 148° |
| 2026-05-04 08:13 | 47.15421 | 15.28556 | 37063 ft | 445 kts | 148° |
| 2026-05-04 08:13 | 47.10242 | 15.33429 | 37062 ft | 445 kts | 148° |
| 2026-05-04 08:14 | 47.05037 | 15.38339 | 37063 ft | 445 kts | 148° |
| 2026-05-04 08:16 | 46.84164 | 15.57846 | 37064 ft | 445 kts | 148° |
| 2026-05-04 08:16 | 46.78940 | 15.62704 | 37063 ft | 445 kts | 148° |
| 2026-05-04 08:17 | 46.73720 | 15.67550 | 37073 ft | 445 kts | 148° |
| 2026-05-04 08:17 | 46.68498 | 15.72385 | 37104 ft | 444 kts | 148° |
| 2026-05-04 08:19 | 46.47622 | 15.91586 | 37117 ft | 444 kts | 149° |
| 2026-05-04 08:20 | 46.42405 | 15.96358 | 37118 ft | 443 kts | 149° |
| 2026-05-04 08:20 | 46.37183 | 16.01126 | 37118 ft | 443 kts | 149° |
| 2026-05-04 08:21 | 46.31960 | 16.05876 | 37124 ft | 443 kts | 149° |
| 2026-05-04 08:21 | 46.26736 | 16.10618 | 37118 ft | 443 kts | 149° |
| 2026-05-04 08:22 | 46.21512 | 16.15355 | 37117 ft | 443 kts | 149° |
| 2026-05-04 08:24 | 46.00593 | 16.34208 | 37117 ft | 443 kts | 149° |
| 2026-05-04 08:24 | 45.95361 | 16.38898 | 37117 ft | 443 kts | 149° |
| 2026-05-04 08:25 | 45.90124 | 16.43576 | 37117 ft | 443 kts | 149° |
| 2026-05-04 08:25 | 45.84924 | 16.48226 | 37117 ft | 443 kts | 149° |
| 2026-05-04 08:27 | 45.63950 | 16.66812 | 37117 ft | 443 kts | 149° |
| 2026-05-04 08:28 | 45.58704 | 16.71439 | 37115 ft | 443 kts | 149° |
| 2026-05-04 08:28 | 45.53454 | 16.76067 | 37099 ft | 444 kts | 149° |
| 2026-05-04 08:29 | 45.48203 | 16.80682 | 37083 ft | 444 kts | 149° |
| 2026-05-04 08:31 | 45.27156 | 16.99069 | 37076 ft | 444 kts | 149° |
| 2026-05-04 08:33 | 45.06075 | 17.17312 | 37075 ft | 444 kts | 149° |
| 2026-05-04 08:35 | 44.84965 | 17.35423 | 37076 ft | 444 kts | 150° |
| 2026-05-04 08:35 | 44.79718 | 17.39899 | 37077 ft | 444 kts | 150° |
| 2026-05-04 08:37 | 44.61225 | 17.55607 | 37075 ft | 444 kts | 150° |
| 2026-05-04 08:38 | 44.55936 | 17.60075 | 37076 ft | 444 kts | 150° |
| 2026-05-04 08:38 | 44.51507 | 17.63816 | 37077 ft | 444 kts | 150° |
| 2026-05-04 08:40 | 44.30757 | 17.82544 | 37057 ft | 447 kts | 145° |
| 2026-05-04 08:41 | 44.25759 | 17.87735 | 37052 ft | 448 kts | 145° |
| 2026-05-04 08:41 | 44.20755 | 17.92921 | 37057 ft | 449 kts | 145° |
| 2026-05-04 08:42 | 44.15747 | 17.98105 | 37061 ft | 449 kts | 145° |
| 2026-05-04 08:42 | 44.10733 | 18.03286 | 37063 ft | 449 kts | 145° |
| 2026-05-04 08:43 | 44.05719 | 18.08454 | 37066 ft | 449 kts | 145° |
| 2026-05-04 08:43 | 44.00706 | 18.13618 | 37067 ft | 449 kts | 145° |
| 2026-05-04 08:44 | 43.95684 | 18.18775 | 37068 ft | 449 kts | 145° |
| 2026-05-04 08:46 | 43.75574 | 18.39297 | 37070 ft | 449 kts | 145° |
| 2026-05-04 08:46 | 43.70544 | 18.44409 | 37070 ft | 449 kts | 145° |
| 2026-05-04 08:47 | 43.65511 | 18.49516 | 37070 ft | 449 kts | 145° |
| 2026-05-04 08:47 | 43.60473 | 18.54603 | 37070 ft | 449 kts | 145° |
| 2026-05-04 08:48 | 43.55437 | 18.59691 | 37069 ft | 449 kts | 145° |
| 2026-05-04 08:48 | 43.50400 | 18.64770 | 37070 ft | 449 kts | 146° |
| 2026-05-04 08:49 | 43.45356 | 18.69839 | 37071 ft | 449 kts | 146° |
| 2026-05-04 08:50 | 43.27680 | 18.87500 | 37041 ft | 450 kts | 146° |
| 2026-05-04 08:51 | 43.22605 | 18.92549 | 37031 ft | 451 kts | 146° |
| 2026-05-04 08:51 | 43.17515 | 18.97621 | 37033 ft | 452 kts | 146° |
| 2026-05-04 08:52 | 43.12418 | 19.02683 | 37040 ft | 453 kts | 146° |
| 2026-05-04 08:52 | 43.07342 | 19.07706 | 37043 ft | 453 kts | 146° |
| 2026-05-04 08:54 | 42.86861 | 19.27842 | 37050 ft | 454 kts | 146° |
| 2026-05-04 08:55 | 42.81736 | 19.32853 | 37053 ft | 454 kts | 146° |
| 2026-05-04 08:55 | 42.76609 | 19.37869 | 37052 ft | 454 kts | 146° |
| 2026-05-04 09:01 | 42.25393 | 19.94821 | 37056 ft | 455 kts | 140° |
| 2026-05-04 09:01 | 42.20689 | 20.00558 | 37059 ft | 456 kts | 140° |
| 2026-05-04 09:02 | 42.15982 | 20.06288 | 37065 ft | 456 kts | 140° |
| 2026-05-04 09:02 | 42.11274 | 20.12008 | 37066 ft | 455 kts | 140° |
| 2026-05-04 09:03 | 42.06566 | 20.17715 | 37066 ft | 455 kts | 140° |
| 2026-05-04 09:03 | 42.01879 | 20.23367 | 37069 ft | 456 kts | 140° |
| 2026-05-04 09:04 | 41.97159 | 20.29060 | 37070 ft | 456 kts | 140° |
| 2026-05-04 09:04 | 41.92444 | 20.34757 | 37072 ft | 456 kts | 140° |
| 2026-05-04 09:05 | 41.87722 | 20.40437 | 37075 ft | 456 kts | 140° |
| 2026-05-04 09:05 | 41.82996 | 20.46102 | 37074 ft | 456 kts | 140° |
| 2026-05-04 09:06 | 41.78283 | 20.51791 | 37073 ft | 456 kts | 136° |
| 2026-05-04 09:07 | 41.66008 | 20.76722 | 37069 ft | 460 kts | 124° |
| 2026-05-04 09:08 | 41.64312 | 20.80349 | 37070 ft | 460 kts | 124° |
| 2026-05-04 09:08 | 41.60919 | 20.87596 | 37071 ft | 460 kts | 124° |
| 2026-05-04 09:09 | 41.57519 | 20.94832 | 37071 ft | 460 kts | 124° |
| 2026-05-04 09:09 | 41.54108 | 21.02054 | 37073 ft | 460 kts | 124° |
| 2026-05-04 09:10 | 41.50696 | 21.09275 | 37074 ft | 460 kts | 124° |
| 2026-05-04 09:10 | 41.47285 | 21.16495 | 37073 ft | 460 kts | 124° |
| 2026-05-04 09:11 | 41.43867 | 21.23702 | 37073 ft | 460 kts | 124° |
| 2026-05-04 09:11 | 41.40441 | 21.30896 | 37073 ft | 460 kts | 124° |
| 2026-05-04 09:12 | 41.37009 | 21.38085 | 37073 ft | 460 kts | 124° |
| 2026-05-04 09:14 | 41.21955 | 21.66091 | 34021 ft | 479 kts | 128° |
| 2026-05-04 09:14 | 41.19950 | 21.69656 | 33029 ft | 485 kts | 128° |
| 2026-05-04 09:14 | 41.17935 | 21.73272 | 31987 ft | 489 kts | 128° |
| 2026-05-04 09:14 | 41.15929 | 21.76889 | 30998 ft | 484 kts | 128° |
| 2026-05-04 09:15 | 41.13946 | 21.80466 | 29880 ft | 481 kts | 128° |
| 2026-05-04 09:15 | 41.11964 | 21.84026 | 28761 ft | 478 kts | 128° |
| 2026-05-04 09:15 | 41.10004 | 21.87526 | 28134 ft | 465 kts | 128° |
| 2026-05-04 09:15 | 41.08100 | 21.90916 | 27465 ft | 454 kts | 128° |
| 2026-05-04 09:17 | 40.93305 | 22.16882 | 22456 ft | 427 kts | 128° |
| 2026-05-04 09:18 | 40.91525 | 22.19995 | 21900 ft | 421 kts | 128° |
| 2026-05-04 09:18 | 40.89768 | 22.23065 | 21378 ft | 416 kts | 128° |
| 2026-05-04 09:18 | 40.88032 | 22.26100 | 20860 ft | 411 kts | 128° |
| 2026-05-04 09:18 | 40.86317 | 22.29093 | 20377 ft | 405 kts | 128° |
| 2026-05-04 09:19 | 40.84627 | 22.32035 | 19896 ft | 400 kts | 128° |
| 2026-05-04 09:19 | 40.82958 | 22.34938 | 19438 ft | 394 kts | 128° |
| 2026-05-04 09:19 | 40.81314 | 22.37795 | 18989 ft | 389 kts | 128° |
| 2026-05-04 09:19 | 40.79684 | 22.40620 | 18529 ft | 385 kts | 128° |
| 2026-05-04 09:20 | 40.78068 | 22.43413 | 18078 ft | 382 kts | 128° |
| 2026-05-04 09:20 | 40.76495 | 22.46209 | 17623 ft | 378 kts | 126° |
| 2026-05-04 09:20 | 40.75033 | 22.49072 | 17170 ft | 374 kts | 123° |
| 2026-05-04 09:20 | 40.73655 | 22.51953 | 16706 ft | 370 kts | 122° |
| 2026-05-04 09:21 | 40.72316 | 22.54832 | 16240 ft | 367 kts | 122° |
| 2026-05-04 09:21 | 40.70987 | 22.57685 | 15779 ft | 364 kts | 122° |
| 2026-05-04 09:21 | 40.69656 | 22.60503 | 15313 ft | 361 kts | 123° |
| 2026-05-04 09:21 | 40.68320 | 22.63287 | 14817 ft | 358 kts | 123° |
| 2026-05-04 09:22 | 40.66773 | 22.65818 | 14323 ft | 353 kts | 139° |
| 2026-05-04 09:22 | 40.64732 | 22.67561 | 13768 ft | 350 kts | 158° |
| 2026-05-04 09:22 | 40.62377 | 22.68351 | 13130 ft | 350 kts | 177° |
| 2026-05-04 09:22 | 40.59981 | 22.68115 | 12670 ft | 344 kts | 194° |
| 2026-05-04 09:23 | 40.57689 | 22.67265 | 12170 ft | 342 kts | 195° |
| 2026-05-04 09:23 | 40.55362 | 22.66636 | 11656 ft | 341 kts | 189° |
| 2026-05-04 09:23 | 40.53008 | 22.66318 | 11147 ft | 340 kts | 183° |
| 2026-05-04 09:23 | 40.50653 | 22.66324 | 10795 ft | 334 kts | 177° |
| 2026-05-04 09:25 | 40.37676 | 22.72601 | 9800 ft | 294 kts | 142° |
| 2026-05-04 09:25 | 40.36114 | 22.74320 | 9392 ft | 292 kts | 137° |
| 2026-05-04 09:26 | 40.34682 | 22.76205 | 8994 ft | 291 kts | 132° |
| 2026-05-04 09:26 | 40.33391 | 22.78228 | 8607 ft | 288 kts | 127° |
| 2026-05-04 09:26 | 40.32242 | 22.80372 | 8225 ft | 286 kts | 122° |
| 2026-05-04 09:26 | 40.31243 | 22.82612 | 7840 ft | 284 kts | 117° |
| 2026-05-04 09:27 | 40.30399 | 22.84934 | 7471 ft | 281 kts | 112° |
| 2026-05-04 09:27 | 40.29712 | 22.87322 | 7098 ft | 279 kts | 108° |
| 2026-05-04 09:27 | 40.29185 | 22.89753 | 6727 ft | 277 kts | 103° |
| 2026-05-04 09:27 | 40.28813 | 22.92213 | 6334 ft | 275 kts | 98° |
| 2026-05-04 09:28 | 40.28596 | 22.94694 | 5837 ft | 271 kts | 94° |
| 2026-05-04 09:28 | 40.28533 | 22.97106 | 5466 ft | 259 kts | 89° |
| 2026-05-04 09:28 | 40.28604 | 22.99409 | 5127 ft | 248 kts | 85° |
| 2026-05-04 09:28 | 40.28863 | 23.01594 | 4752 ft | 239 kts | 66° |
| 2026-05-04 09:29 | 40.29892 | 23.03164 | 4442 ft | 224 kts | 28° |
| 2026-05-04 09:29 | 40.31345 | 23.03598 | 4197 ft | 211 kts | 355° |
| 2026-05-04 09:29 | 40.32734 | 23.03218 | 3945 ft | 199 kts | 346° |
| 2026-05-04 09:29 | 40.34045 | 23.02795 | 3637 ft | 189 kts | 346° |
| 2026-05-04 09:30 | 40.35275 | 23.02401 | 3391 ft | 174 kts | 347° |
| 2026-05-04 09:30 | 40.36410 | 23.02037 | 3128 ft | 164 kts | 346° |
| 2026-05-04 09:30 | 40.37504 | 23.01685 | 2890 ft | 160 kts | 347° |
| 2026-05-04 09:30 | 40.38572 | 23.01348 | 2667 ft | 152 kts | 347° |
| 2026-05-04 09:31 | 40.39584 | 23.01024 | 2435 ft | 148 kts | 347° |
| 2026-05-04 09:31 | 40.40576 | 23.00708 | 2225 ft | 146 kts | 347° |
| 2026-05-04 09:31 | 40.41557 | 23.00391 | 2011 ft | 145 kts | 346° |
| 2026-05-04 09:31 | 40.42536 | 23.00079 | 1798 ft | 145 kts | 346° |
| 2026-05-04 09:32 | 40.43515 | 22.99777 | 1587 ft | 144 kts | 346° |
| 2026-05-04 09:32 | 40.44490 | 22.99474 | 1377 ft | 144 kts | 346° |
| 2026-05-04 09:34 | 40.51182 | 22.97335 | 42 ft | 139 kts | 347° |
| 2026-05-04 09:34 | 40.52115 | 22.97062 | 14 ft | 127 kts | 347° |
| 2026-05-04 09:34 | 40.52678 | 22.96873 | 18 ft | 10 kts | 354° |
| 2026-05-04 09:34 | 40.52679 | 22.96923 | 18 ft | 13 kts | 104° |
| 2026-05-04 09:35 | 40.52679 | 22.96957 | 18 ft | 0 kts | 78° |
| 2026-05-04 09:35 | 40.52680 | 22.96960 | 18 ft | 0 kts | 78° |
| 2026-05-04 09:35 | 40.52683 | 22.96994 | 18 ft | 10 kts | 85° |
| 2026-05-04 09:37 | 40.52370 | 22.97346 | 15 ft | 7 kts | 57° |
| 2026-05-04 09:37 | 40.52403 | 22.97393 | 15 ft | 7 kts | 44° |
| 2026-05-04 09:38 | 40.52428 | 22.97424 | 15 ft | 0 kts | 45° |